Aérodrome :
LOGIN :

S'inscrire | Disclaimer

   EN    FR    IT 

 










Légende :    VFR   VFR Marginal   IFR   IFR Intensif   IFR Très Intensif
Visi : 
Plafond : 
>= 8 km
>= 3000ft
5 à 8 km
1000 à 3000 ft
1500m à 5 km
500 à 1000 ft
800 à 1500m
200 à 500 ft
< 800m
< 200 ft
Symboles :   Orages  Brouillard  Fortes neiges  Fortes précipitations  Vent > 20 kt
SIGMETs :   Divers  Orages  Givrage  Turbulence  Onde Orograph.  Cendres Volcan.






- Altitude de l'aérodrome : 209 ft
- Code IATA : CLY


LFKC - Calvi

DERNIER METAR :
  • 281200Z AUTO 33007KT 270V010 CAVOK 15/03 Q1017 NOSIG

METARs EXPIRÉS :
  • 281130Z AUTO 33007KT 270V360 CAVOK 15/04 Q1017 NOSIG
  • 281100Z AUTO 33007KT 290V010 CAVOK 15/05 Q1016 NOSIG
  • 281030Z AUTO 33007KT 230V360 CAVOK 15/04 Q1016 NOSIG
  • 281000Z AUTO 35006KT 310V010 CAVOK 15/04 Q1016 NOSIG
  • 280930Z AUTO VRB05KT CAVOK 15/03 Q1016 NOSIG

TAF TAF LFKC
Valide du 28 à 09h jusqu'au 29 à 09h UTC


280800Z 2809/2909 20006KT CAVOK TX17/2812Z TN05/2905Z
BECMG 2809/2810 35008KT
BECMG 2817/2819 17005KT
ATIS : +33 4 95 65 82 49



MET'MAP, la Météo Aéronautique d'un coup d'oeil ! - Copyright ORBIFLY Décembre 2007 - Disclaimer

ORBIFLY MET'MAP TEAM :

Programmation & Développement : Alexandra Zaïnal
Sur une idée originale de : Baudouin d'Aumeries
Assistance à la programmation : Marc-Olivier Méhu
Soutien technique & logistique : Manuel Goepfert

Contact : metmap@orbifly.com




SOURCES & CREDITS :

   NOAA